Time,TemperatureF,DewpointF,PressureIn,WindDirection,WindDirectionDegrees,WindSpeedMPH,WindSpeedGustMPH,Humidity,HourlyPrecipIn,Conditions,Clouds,dailyrainin,SoftwareType,DateUTC
2013-02-09 00:02:00,22.0,-99.9,-100.00,ESE,107,2.0,4.0,-999,0.00,,,0.00,,2013-02-09 06:02:00,
2013-02-09 00:11:00,22.0,-99.9,-100.00,ESE,107,2.0,4.0,-999,0.00,,,0.00,,2013-02-09 06:11:00,
2013-02-09 00:22:00,22.0,-99.9,-100.00,ESE,107,2.0,4.0,-999,0.00,,,0.00,,2013-02-09 06:22:00,
2013-02-09 00:32:00,22.0,-99.9,-100.00,SE,136,2.0,4.0,-999,0.00,,,0.00,,2013-02-09 06:32:00,
2013-02-09 00:42:00,22.0,-99.9,-100.00,SE,136,2.0,4.0,-999,0.00,,,0.00,,2013-02-09 06:42:00,
2013-02-09 00:52:00,22.0,-99.9,-100.00,SE,136,2.0,4.0,-999,0.00,,,0.00,,2013-02-09 06:52:00,
2013-02-09 01:01:00,23.0,-99.9,-100.00,SE,134,2.0,5.0,-999,0.00,,,0.00,,2013-02-09 07:01:00,
2013-02-09 01:11:00,23.0,-99.9,-100.00,SE,134,2.0,5.0,-999,0.00,,,0.00,,2013-02-09 07:11:00,
2013-02-09 01:22:00,23.0,-99.9,-100.00,SE,134,2.0,5.0,-999,0.00,,,0.00,,2013-02-09 07:22:00,
2013-02-09 01:32:00,23.0,-99.9,-100.00,East,95,2.0,4.0,-999,0.00,,,0.00,,2013-02-09 07:32:00,
2013-02-09 01:42:00,23.0,-99.9,-100.00,East,95,2.0,4.0,-999,0.00,,,0.00,,2013-02-09 07:42:00,
2013-02-09 01:52:00,23.0,-99.9,-100.00,East,95,2.0,4.0,-999,0.00,,,0.00,,2013-02-09 07:52:00,
2013-02-09 02:01:00,23.0,-99.9,-100.00,ESE,102,3.0,6.0,-999,0.00,,,0.00,,2013-02-09 08:01:00,
2013-02-09 02:11:00,23.0,-99.9,-100.00,ESE,102,3.0,6.0,-999,0.00,,,0.00,,2013-02-09 08:11:00,
2013-02-09 02:22:00,23.0,-99.9,-100.00,ESE,102,3.0,6.0,-999,0.00,,,0.00,,2013-02-09 08:22:00,
2013-02-09 02:32:00,23.0,-99.9,-100.00,ESE,105,2.0,6.0,-999,0.00,,,0.00,,2013-02-09 08:32:00,
2013-02-09 02:42:00,23.0,-99.9,-100.00,ESE,105,2.0,6.0,-999,0.00,,,0.00,,2013-02-09 08:42:00,
2013-02-09 02:52:00,23.0,-99.9,-100.00,ESE,105,2.0,6.0,-999,0.00,,,0.00,,2013-02-09 08:52:00,
2013-02-09 03:03:00,23.0,-99.9,-100.00,SSE,157,3.0,5.0,-999,0.00,,,0.00,,2013-02-09 09:03:00,
2013-02-09 03:11:00,23.0,-99.9,-100.00,SSE,157,3.0,5.0,-999,0.00,,,0.00,,2013-02-09 09:11:00,
2013-02-09 03:22:00,23.0,-99.9,-100.00,SSE,157,3.0,5.0,-999,0.00,,,0.00,,2013-02-09 09:22:00,
2013-02-09 03:32:00,23.0,-99.9,-100.00,SSE,152,3.0,4.0,-999,0.00,,,0.00,,2013-02-09 09:32:00,
2013-02-09 03:42:00,23.0,-99.9,-100.00,SSE,152,3.0,4.0,-999,0.00,,,0.00,,2013-02-09 09:42:00,
2013-02-09 03:52:00,23.0,-99.9,-100.00,SSE,152,3.0,4.0,-999,0.00,,,0.00,,2013-02-09 09:52:00,
2013-02-09 04:01:00,23.0,-99.9,-100.00,SE,145,3.0,5.0,-999,0.00,,,0.00,,2013-02-09 10:01:00,
2013-02-09 04:11:00,23.0,-99.9,-100.00,SE,145,3.0,5.0,-999,0.00,,,0.00,,2013-02-09 10:11:00,
2013-02-09 04:22:00,23.0,-99.9,-100.00,SE,145,3.0,5.0,-999,0.00,,,0.00,,2013-02-09 10:22:00,
2013-02-09 04:32:00,23.0,-99.9,-100.00,SSE,158,4.0,5.0,-999,0.00,,,0.00,,2013-02-09 10:32:00,
2013-02-09 04:42:00,23.0,-99.9,-100.00,SSE,158,4.0,5.0,-999,0.00,,,0.00,,2013-02-09 10:42:00,
2013-02-09 04:52:00,23.0,-99.9,-100.00,SSE,158,4.0,5.0,-999,0.00,,,0.00,,2013-02-09 10:52:00,
2013-02-09 05:02:00,23.0,-99.9,-100.00,SSE,152,4.0,7.0,-999,0.00,,,0.00,,2013-02-09 11:02:00,
2013-02-09 05:11:00,23.0,-99.9,-100.00,SSE,152,4.0,7.0,-999,0.00,,,0.00,,2013-02-09 11:11:00,
2013-02-09 05:22:00,23.0,-99.9,-100.00,SSE,152,4.0,7.0,-999,0.00,,,0.00,,2013-02-09 11:22:00,
2013-02-09 05:32:00,23.0,-99.9,-100.00,SSE,155,2.0,5.0,-999,0.00,,,0.00,,2013-02-09 11:32:00,
2013-02-09 05:42:00,23.0,-99.9,-100.00,SSE,155,2.0,5.0,-999,0.00,,,0.00,,2013-02-09 11:42:00,
2013-02-09 05:53:00,23.0,-99.9,-100.00,SSE,155,2.0,5.0,-999,0.00,,,0.00,,2013-02-09 11:53:00,
2013-02-09 06:02:00,24.0,-99.9,-100.00,SE,131,1.0,3.0,-999,0.00,,,0.00,,2013-02-09 12:02:00,
2013-02-09 06:11:00,24.0,-99.9,-100.00,SE,131,1.0,3.0,-999,0.00,,,0.00,,2013-02-09 12:11:00,
2013-02-09 06:22:00,24.0,-99.9,-100.00,SE,131,1.0,3.0,-999,0.00,,,0.00,,2013-02-09 12:22:00,
2013-02-09 06:32:00,25.0,-99.9,-100.00,SSE,158,11.0,16.0,-999,0.00,,,0.00,,2013-02-09 12:32:00,
2013-02-09 06:42:00,25.0,-99.9,-100.00,SSE,158,11.0,16.0,-999,0.00,,,0.00,,2013-02-09 12:42:00,
2013-02-09 06:53:00,25.0,-99.9,-100.00,SSE,158,11.0,16.0,-999,0.00,,,0.00,,2013-02-09 12:53:00,
2013-02-09 07:02:00,25.0,-99.9,-100.00,South,175,6.0,10.0,-999,0.00,,,0.00,,2013-02-09 13:02:00,
2013-02-09 07:11:00,25.0,-99.9,-100.00,South,175,6.0,10.0,-999,0.00,,,0.00,,2013-02-09 13:11:00,
2013-02-09 07:22:00,25.0,-99.9,-100.00,South,175,6.0,10.0,-999,0.00,,,0.00,,2013-02-09 13:22:00,
2013-02-09 07:32:00,26.0,-99.9,-100.00,SSE,162,6.0,9.0,-999,0.00,,,0.00,,2013-02-09 13:32:00,
2013-02-09 07:42:00,26.0,-99.9,-100.00,SSE,162,6.0,9.0,-999,0.00,,,0.00,,2013-02-09 13:42:00,
2013-02-09 07:52:00,26.0,-99.9,-100.00,SSE,162,6.0,9.0,-999,0.00,,,0.00,,2013-02-09 13:52:00,
2013-02-09 08:02:00,26.0,-99.9,-100.00,SSE,163,7.0,9.0,-999,0.00,,,0.00,,2013-02-09 14:02:00,
2013-02-09 08:12:00,26.0,-99.9,-100.00,SSE,163,7.0,9.0,-999,0.00,,,0.00,,2013-02-09 14:12:00,
2013-02-09 08:22:00,26.0,-99.9,-100.00,SSE,163,7.0,9.0,-999,0.00,,,0.00,,2013-02-09 14:22:00,
2013-02-09 08:32:00,26.0,-99.9,-100.00,SSE,163,7.0,13.0,-999,0.00,,,0.00,,2013-02-09 14:32:00,
2013-02-09 08:42:00,26.0,-99.9,-100.00,SSE,163,7.0,13.0,-999,0.00,,,0.00,,2013-02-09 14:42:00,
2013-02-09 08:52:00,26.0,-99.9,-100.00,SSE,163,7.0,13.0,-999,0.00,,,0.00,,2013-02-09 14:52:00,
2013-02-09 09:02:00,26.0,-99.9,-100.00,SSE,160,10.0,13.0,-999,0.00,,,0.00,,2013-02-09 15:02:00,
2013-02-09 09:12:00,26.0,-99.9,-100.00,SSE,160,10.0,13.0,-999,0.00,,,0.00,,2013-02-09 15:12:00,
2013-02-09 09:22:00,26.0,-99.9,-100.00,SSE,160,10.0,13.0,-999,0.00,,,0.00,,2013-02-09 15:22:00,
2013-02-09 09:32:00,27.0,-99.9,-100.00,SSE,167,9.0,11.0,-999,0.00,,,0.00,,2013-02-09 15:32:00,
2013-02-09 09:42:00,27.0,-99.9,-100.00,SSE,167,9.0,11.0,-999,0.00,,,0.00,,2013-02-09 15:42:00,
2013-02-09 09:52:00,27.0,-99.9,-100.00,SSE,167,9.0,11.0,-999,0.00,,,0.00,,2013-02-09 15:52:00,
2013-02-09 10:02:00,27.0,-99.9,-100.00,SSE,164,10.0,13.0,-999,0.00,,,0.00,,2013-02-09 16:02:00,
2013-02-09 10:11:00,27.0,-99.9,-100.00,SSE,164,10.0,13.0,-999,0.00,,,0.00,,2013-02-09 16:11:00,
2013-02-09 10:22:00,27.0,-99.9,-100.00,SSE,164,10.0,13.0,-999,0.00,,,0.00,,2013-02-09 16:22:00,
2013-02-09 10:32:00,28.0,-99.9,-100.00,SSE,162,13.0,18.0,-999,0.00,,,0.00,,2013-02-09 16:32:00,
2013-02-09 10:42:00,28.0,-99.9,-100.00,SSE,162,13.0,18.0,-999,0.00,,,0.00,,2013-02-09 16:42:00,
2013-02-09 10:52:00,28.0,-99.9,-100.00,SSE,162,13.0,18.0,-999,0.00,,,0.00,,2013-02-09 16:52:00,
2013-02-09 11:01:00,28.0,-99.9,-100.00,SSE,166,11.0,16.0,-999,0.00,,,0.00,,2013-02-09 17:01:00,
2013-02-09 11:11:00,28.0,-99.9,-100.00,SSE,166,11.0,16.0,-999,0.00,,,0.00,,2013-02-09 17:11:00,
2013-02-09 11:22:00,28.0,-99.9,-100.00,SSE,166,11.0,16.0,-999,0.00,,,0.00,,2013-02-09 17:22:00,
2013-02-09 11:32:00,29.0,-99.9,-100.00,SSE,167,13.0,21.0,-999,0.00,,,0.00,,2013-02-09 17:32:00,
2013-02-09 11:42:00,29.0,-99.9,-100.00,SSE,167,13.0,21.0,-999,0.00,,,0.00,,2013-02-09 17:42:00,
2013-02-09 11:52:00,29.0,-99.9,-100.00,SSE,167,13.0,21.0,-999,0.00,,,0.00,,2013-02-09 17:52:00,
2013-02-09 12:02:00,29.0,-99.9,-100.00,South,169,10.0,20.0,-999,0.00,,,0.00,,2013-02-09 18:02:00,
2013-02-09 12:12:00,29.0,-99.9,-100.00,South,169,10.0,20.0,-999,0.00,,,0.00,,2013-02-09 18:12:00,
2013-02-09 12:23:00,29.0,-99.9,-100.00,South,169,10.0,20.0,-999,0.00,,,0.00,,2013-02-09 18:23:00,
2013-02-09 12:32:00,29.0,-99.9,-100.00,SSE,157,13.0,17.0,-999,0.00,,,0.00,,2013-02-09 18:32:00,
2013-02-09 12:42:00,29.0,-99.9,-100.00,SSE,157,13.0,17.0,-999,0.00,,,0.00,,2013-02-09 18:42:00,
2013-02-09 12:52:00,29.0,-99.9,-100.00,SSE,157,13.0,17.0,-999,0.00,,,0.00,,2013-02-09 18:52:00,
2013-02-09 13:02:00,30.0,-99.9,-100.00,SSE,168,8.0,11.0,-999,0.00,,,0.00,,2013-02-09 19:02:00,
2013-02-09 13:11:00,30.0,-99.9,-100.00,SSE,168,8.0,11.0,-999,0.00,,,0.00,,2013-02-09 19:11:00,
2013-02-09 13:22:00,30.0,-99.9,-100.00,SSE,168,8.0,11.0,-999,0.00,,,0.00,,2013-02-09 19:22:00,
2013-02-09 13:32:00,30.0,-99.9,-100.00,SSE,163,10.0,13.0,-999,0.00,,,0.00,,2013-02-09 19:32:00,
2013-02-09 13:42:00,30.0,-99.9,-100.00,SSE,163,10.0,13.0,-999,0.00,,,0.00,,2013-02-09 19:42:00,
2013-02-09 13:52:00,30.0,-99.9,-100.00,SSE,163,10.0,13.0,-999,0.00,,,0.00,,2013-02-09 19:52:00,
2013-02-09 14:02:00,31.0,-99.9,-100.00,South,173,6.0,9.0,-999,0.00,,,0.00,,2013-02-09 20:02:00,
2013-02-09 14:11:00,31.0,-99.9,-100.00,South,173,6.0,9.0,-999,0.00,,,0.00,,2013-02-09 20:11:00,
2013-02-09 14:22:00,31.0,-99.9,-100.00,South,173,6.0,9.0,-999,0.00,,,0.00,,2013-02-09 20:22:00,
2013-02-09 14:32:00,31.0,-99.9,-100.00,SSE,164,8.0,12.0,-999,0.00,,,0.00,,2013-02-09 20:32:00,
2013-02-09 14:42:00,31.0,-99.9,-100.00,SSE,164,8.0,12.0,-999,0.00,,,0.00,,2013-02-09 20:42:00,
2013-02-09 14:52:00,31.0,-99.9,-100.00,SSE,164,8.0,12.0,-999,0.00,,,0.00,,2013-02-09 20:52:00,
2013-02-09 15:02:00,32.0,-99.9,-100.00,SSE,160,9.0,12.0,-999,0.00,,,0.00,,2013-02-09 21:02:00,
2013-02-09 15:12:00,32.0,-99.9,-100.00,SSE,160,9.0,12.0,-999,0.00,,,0.00,,2013-02-09 21:12:00,
2013-02-09 15:22:00,32.0,-99.9,-100.00,SSE,160,9.0,12.0,-999,0.00,,,0.00,,2013-02-09 21:22:00,
2013-02-09 15:32:00,32.0,-99.9,-100.00,South,170,9.0,11.0,-999,0.00,,,0.00,,2013-02-09 21:32:00,
2013-02-09 15:42:00,32.0,-99.9,-100.00,South,170,9.0,11.0,-999,0.00,,,0.00,,2013-02-09 21:42:00,
2013-02-09 15:52:00,32.0,-99.9,-100.00,South,170,9.0,11.0,-999,0.00,,,0.00,,2013-02-09 21:52:00,
2013-02-09 16:02:00,32.0,-99.9,-100.00,SSE,158,11.0,14.0,-999,0.00,,,0.00,,2013-02-09 22:02:00,
2013-02-09 16:11:00,32.0,-99.9,-100.00,SSE,158,11.0,14.0,-999,0.00,,,0.00,,2013-02-09 22:11:00,
2013-02-09 16:22:00,32.0,-99.9,-100.00,SSE,158,11.0,14.0,-999,0.00,,,0.00,,2013-02-09 22:22:00,
2013-02-09 16:32:00,32.0,-99.9,-100.00,SSE,160,9.0,11.0,-999,0.00,,,0.00,,2013-02-09 22:32:00,
2013-02-09 16:42:00,32.0,-99.9,-100.00,SSE,160,9.0,11.0,-999,0.00,,,0.00,,2013-02-09 22:42:00,
2013-02-09 16:52:00,32.0,-99.9,-100.00,SSE,160,9.0,11.0,-999,0.00,,,0.00,,2013-02-09 22:52:00,
2013-02-09 17:02:00,32.0,-99.9,-100.00,SSE,162,11.0,14.0,-999,0.00,,,0.00,,2013-02-09 23:02:00,
2013-02-09 17:11:00,32.0,-99.9,-100.00,SSE,162,11.0,14.0,-999,0.00,,,0.00,,2013-02-09 23:11:00,
2013-02-09 17:22:00,32.0,-99.9,-100.00,SSE,162,11.0,14.0,-999,0.00,,,0.00,,2013-02-09 23:22:00,
2013-02-09 17:32:00,32.0,-99.9,-100.00,SSE,161,9.0,11.0,-999,0.00,,,0.00,,2013-02-09 23:32:00,
2013-02-09 17:42:00,32.0,-99.9,-100.00,SSE,161,9.0,11.0,-999,0.00,,,0.00,,2013-02-09 23:42:00,
2013-02-09 17:52:00,32.0,-99.9,-100.00,SSE,161,9.0,11.0,-999,0.00,,,0.00,,2013-02-09 23:52:00,
2013-02-09 18:02:00,32.0,-99.9,-100.00,SSE,154,8.0,10.0,-999,0.00,,,0.00,,2013-02-10 00:02:00,
2013-02-09 18:12:00,32.0,-99.9,-100.00,SSE,154,8.0,10.0,-999,0.00,,,0.00,,2013-02-10 00:12:00,
2013-02-09 18:22:00,32.0,-99.9,-100.00,SSE,154,8.0,10.0,-999,0.00,,,0.00,,2013-02-10 00:22:00,
2013-02-09 18:32:00,32.0,-99.9,-100.00,SE,131,2.0,5.0,-999,0.00,,,0.00,,2013-02-10 00:32:00,
2013-02-09 18:42:00,32.0,-99.9,-100.00,SE,131,2.0,5.0,-999,0.00,,,0.00,,2013-02-10 00:42:00,
2013-02-09 18:52:00,32.0,-99.9,-100.00,SE,131,2.0,5.0,-999,0.00,,,0.00,,2013-02-10 00:52:00,
2013-02-09 19:02:00,32.0,-99.9,-100.00,SSE,150,4.0,8.0,-999,0.00,,,0.00,,2013-02-10 01:02:00,
2013-02-09 19:12:00,32.0,-99.9,-100.00,SSE,150,4.0,8.0,-999,0.00,,,0.00,,2013-02-10 01:12:00,
2013-02-09 19:22:00,32.0,-99.9,-100.00,SSE,150,4.0,8.0,-999,0.00,,,0.00,,2013-02-10 01:22:00,
2013-02-09 19:30:00,32.0,-99.9,-100.00,SSE,156,5.0,10.0,-999,0.00,,,0.00,,2013-02-10 01:30:00,
2013-02-09 19:32:00,32.0,-99.9,-100.00,SSE,160,9.0,12.0,-999,0.00,,,0.00,,2013-02-10 01:32:00,
2013-02-09 19:42:00,32.0,-99.9,-100.00,SSE,160,9.0,12.0,-999,0.00,,,0.00,,2013-02-10 01:42:00,
2013-02-09 19:52:00,32.0,-99.9,-100.00,SSE,160,9.0,12.0,-999,0.00,,,0.00,,2013-02-10 01:52:00,
2013-02-09 20:02:00,32.0,-99.9,-100.00,SSE,156,5.0,10.0,-999,0.00,,,0.00,,2013-02-10 02:02:00,
2013-02-09 20:11:00,32.0,-99.9,-100.00,SSE,156,5.0,10.0,-999,0.00,,,0.00,,2013-02-10 02:11:00,
2013-02-09 20:22:00,32.0,-99.9,-100.00,SSE,156,5.0,10.0,-999,0.00,,,0.00,,2013-02-10 02:22:00,
2013-02-09 20:42:00,31.0,-99.9,-100.00,SSE,156,3.0,7.0,-999,0.00,,,0.00,,2013-02-10 02:42:00,
2013-02-09 20:52:00,31.0,-99.9,-100.00,SSE,156,3.0,7.0,-999,0.00,,,0.00,,2013-02-10 02:52:00,
2013-02-09 21:02:00,30.0,-99.9,-100.00,SSE,149,2.0,6.0,-999,0.00,,,0.00,,2013-02-10 03:02:00,
2013-02-09 21:12:00,30.0,-99.9,-100.00,SSE,149,2.0,6.0,-999,0.00,,,0.00,,2013-02-10 03:12:00,
2013-02-09 21:22:00,30.0,-99.9,-100.00,SSE,149,2.0,6.0,-999,0.00,,,0.00,,2013-02-10 03:22:00,
2013-02-09 21:32:00,29.0,-99.9,-100.00,SE,143,2.0,5.0,-999,0.00,,,0.00,,2013-02-10 03:32:00,
2013-02-09 21:42:00,29.0,-99.9,-100.00,SE,143,2.0,5.0,-999,0.00,,,0.00,,2013-02-10 03:42:00,
2013-02-09 21:52:00,29.0,-99.9,-100.00,SE,143,2.0,5.0,-999,0.00,,,0.00,,2013-02-10 03:52:00,
2013-02-09 22:02:00,29.0,-99.9,-100.00,ESE,114,2.0,4.0,-999,0.00,,,0.00,,2013-02-10 04:02:00,
2013-02-09 22:11:00,29.0,-99.9,-100.00,ESE,114,2.0,4.0,-999,0.00,,,0.00,,2013-02-10 04:11:00,
2013-02-09 22:22:00,29.0,-99.9,-100.00,ESE,114,2.0,4.0,-999,0.00,,,0.00,,2013-02-10 04:22:00,
2013-02-09 22:32:00,29.0,-99.9,-100.00,SE,144,3.0,5.0,-999,0.00,,,0.00,,2013-02-10 04:32:00,
2013-02-09 22:42:00,29.0,-99.9,-100.00,SE,144,3.0,5.0,-999,0.00,,,0.00,,2013-02-10 04:42:00,
2013-02-09 22:52:00,29.0,-99.9,-100.00,SE,144,3.0,5.0,-999,0.00,,,0.00,,2013-02-10 04:52:00,
2013-02-09 23:01:00,29.0,-99.9,-100.00,SSE,166,4.0,5.0,-999,0.00,,,0.00,,2013-02-10 05:01:00,
2013-02-09 23:11:00,29.0,-99.9,-100.00,SSE,166,4.0,5.0,-999,0.00,,,0.00,,2013-02-10 05:11:00,
2013-02-09 23:23:00,29.0,-99.9,-100.00,SSE,166,4.0,5.0,-999,0.00,,,0.00,,2013-02-10 05:23:00,
2013-02-09 23:32:00,29.0,-99.9,-100.00,SSE,152,1.0,3.0,-999,0.00,,,0.00,,2013-02-10 05:32:00,
2013-02-09 23:42:00,29.0,-99.9,-100.00,SSE,152,1.0,3.0,-999,0.00,,,0.00,,2013-02-10 05:42:00,
2013-02-09 23:52:00,29.0,-99.9,-100.00,SSE,152,1.0,3.0,-999,0.00,,,0.00,,2013-02-10 05:52:00,